Albert Maersk — OUOW2 — position and weather

sailwx.info

Track history (hours):
 
Tides and Currents Weather Stations Pressure Air Temp Water Temp Dewpoint Dewpoint Depression Visibility Wind Speed Wind Dir Waves Ship Positions

Albert Maersk

Last reported at 2015-Jul-29 10:33 UTC. Time now 2015-Jul-29 22:06 UTC.
Position N 31°54' W 079°48'.

MMSI: 220259928.

Date/timePositionNaut miles runAvg speedWind from/ knotsBaromVisibWave heightAir tempDewpointWater temp
2015-Jul-29 10:33N 31°54' W 079°48'2416.0
2015-Jul-29 09:04N 32°17' W 079°42'816.3
2015-Jul-29 08:33N 32°25' W 079°39'1414.5
2015-Jul-29 07:33N 32°39' W 079°41'1412.1
2015-Jul-29 06:22N 32°47' W 079°55'72 1.7
2015-Jul-27 11:27N 32°05' W 081°04'4 4.4
2015-Jul-27 10:26N 32°07' W 081°08'1 0.1
2015-Jul-26 18:15N 32°08' W 081°09'0 0.0
2015-Jul-26 17:18N 32°08' W 081°09'0 0.0
2015-Jul-26 16:33N 32°08' W 081°09'0 0.0
2015-Jul-26 10:04N 32°08' W 081°09'0 0.4
2015-Jul-26 09:27N 32°08' W 081°08'3 3.9
2015-Jul-26 08:34N 32°05' W 081°06'57313.0
2015-Jul-24 12:23N 39°38' W 073°53'2016.5
2015-Jul-24 11:12N 39°58' W 073°51'2815.3
2015-Jul-24 09:21N 40°26' W 073°49'1215.2
2015-Jul-24 08:33N 40°34' W 074°02'7 7.3
2015-Jul-24 07:33N 40°39' W 074°09'2 2.2
2015-Jul-24 06:27N 40°41' W 074°09'0 0.0
2015-Jul-24 05:33N 40°41' W 074°09'0 0.0
2015-Jul-24 04:33N 40°41' W 074°09'0 0.0
2015-Jul-24 03:33N 40°41' W 074°09'0 0.0
2015-Jul-24 02:33N 40°41' W 074°09'0 0.0
2015-Jul-24 01:30N 40°41' W 074°09'0 0.0
2015-Jul-24 00:33N 40°41' W 074°09'0 0.0
2015-Jul-23 23:33N 40°41' W 074°09'0 0.0
2015-Jul-23 22:33N 40°41' W 074°09'0 0.0
2015-Jul-23 21:27N 40°41' W 074°09'0 0.0
2015-Jul-23 20:27N 40°41' W 074°09'0 0.0
2015-Jul-23 19:33N 40°41' W 074°09'0 0.0
2015-Jul-23 18:33N 40°41' W 074°09'0 0.0
2015-Jul-23 17:33N 40°41' W 074°09'0 0.0
2015-Jul-23 16:30N 40°41' W 074°09'0 0.0
2015-Jul-23 15:33N 40°41' W 074°09'0 0.0
2015-Jul-23 14:33N 40°41' W 074°09'0 0.0
2015-Jul-23 13:33N 40°41' W 074°09'0 0.0
2015-Jul-23 12:33N 40°41' W 074°09'0 0.0
2015-Jul-23 11:30N 40°41' W 074°09'0 0.0
2015-Jul-23 10:30N 40°41' W 074°09'0 0.0
2015-Jul-23 09:33N 40°41' W 074°09'0 0.0
2015-Jul-23 08:33N 40°41' W 074°09'0 0.0
2015-Jul-23 07:33N 40°41' W 074°09'0 0.0
2015-Jul-23 06:33N 40°41' W 074°09'0 0.0
2015-Jul-23 05:30N 40°41' W 074°09'0 0.0
2015-Jul-23 04:33N 40°41' W 074°09'0 0.0
2015-Jul-23 03:33N 40°41' W 074°09'0 0.0
2015-Jul-23 02:33N 40°41' W 074°09'0 0.0
2015-Jul-23 01:33N 40°41' W 074°09'0 0.0
2015-Jul-23 00:33N 40°41' W 074°09'0 0.0
2015-Jul-22 23:33N 40°41' W 074°09'0 0.0
2015-Jul-22 22:33N 40°41' W 074°09'0 0.0
2015-Jul-22 21:33N 40°41' W 074°09'0 0.0
2015-Jul-22 20:33N 40°41' W 074°09'0 0.0
2015-Jul-22 19:33N 40°41' W 074°09'0 0.0
2015-Jul-22 18:27N 40°41' W 074°09'0 0.0
2015-Jul-22 17:27N 40°41' W 074°09'0 0.0
2015-Jul-22 16:33N 40°41' W 074°09'0 0.0
2015-Jul-22 15:33N 40°41' W 074°09'0 0.0
2015-Jul-22 14:30N 40°41' W 074°09'0 0.0
2015-Jul-22 13:33N 40°41' W 074°09'0 0.0
2015-Jul-22 12:33N 40°41' W 074°09'0 0.0
2015-Jul-22 11:33N 40°41' W 074°09'3 2.5
2015-Jul-22 10:33N 40°39' W 074°08'5 4.8
2015-Jul-22 09:33N 40°36' W 074°03'1311.1
2015-Jul-22 08:21N 40°27' W 073°50'5617.5
2015-Jul-22 05:09N 40°30' W 072°36'1421.0
2015-Jul-22 04:30N 40°31' W 072°18'2021.2
2015-Jul-22 03:33N 40°31' W 071°52'2121.4
2015-Jul-22 02:34N 40°32' W 071°24'2121.2
2015-Jul-22 01:33N 40°32' W 070°55'2121.3
2015-Jul-22 00:33N 40°33' W 070°28'2221.5
2015-Jul-21 23:33N 40°34' W 069°59'2221.4
2015-Jul-21 22:30N 40°35' W 069°30'2220.9
2015-Jul-21 21:27N 40°32' W 069°01'3920.7
2015-Jul-21 19:33N 40°26' W 068°10'2020.2
2015-Jul-21 18:33N 40°21' W 067°44'2019.7
2015-Jul-21 17:33N 40°16' W 067°19'2019.8
2015-Jul-21 16:33N 40°10' W 066°54'  
Track history (hours):
 
Tides and Currents Weather Stations Pressure Air Temp Water Temp Dewpoint Dewpoint Depression Visibility Wind Speed Wind Dir Waves Ship Positions

Albert Maersk

Last reported at 2015-Jul-29 10:33 UTC. Time now 2015-Jul-29 22:06 UTC.
Position N 31°54' W 079°48'.

MMSI: 220259928.

Date/timePositionNaut miles runAvg speedWind from/ knotsBaromVisibWave heightAir tempDewpointWater temp
2015-Jul-29 10:33N 31°54' W 079°48'2416.0
2015-Jul-29 09:04N 32°17' W 079°42'816.3
2015-Jul-29 08:33N 32°25' W 079°39'1414.5
2015-Jul-29 07:33N 32°39' W 079°41'1412.1
2015-Jul-29 06:22N 32°47' W 079°55'72 1.7
2015-Jul-27 11:27N 32°05' W 081°04'4 4.4
2015-Jul-27 10:26N 32°07' W 081°08'1 0.1
2015-Jul-26 18:15N 32°08' W 081°09'0 0.0
2015-Jul-26 17:18N 32°08' W 081°09'0 0.0
2015-Jul-26 16:33N 32°08' W 081°09'0 0.0
2015-Jul-26 10:04N 32°08' W 081°09'0 0.4
2015-Jul-26 09:27N 32°08' W 081°08'3 3.9
2015-Jul-26 08:34N 32°05' W 081°06'57313.0
2015-Jul-24 12:23N 39°38' W 073°53'2016.5
2015-Jul-24 11:12N 39°58' W 073°51'2815.3
2015-Jul-24 09:21N 40°26' W 073°49'1215.2
2015-Jul-24 08:33N 40°34' W 074°02'7 7.3
2015-Jul-24 07:33N 40°39' W 074°09'2 2.2
2015-Jul-24 06:27N 40°41' W 074°09'0 0.0
2015-Jul-24 05:33N 40°41' W 074°09'0 0.0
2015-Jul-24 04:33N 40°41' W 074°09'0 0.0
2015-Jul-24 03:33N 40°41' W 074°09'0 0.0
2015-Jul-24 02:33N 40°41' W 074°09'0 0.0
2015-Jul-24 01:30N 40°41' W 074°09'0 0.0
2015-Jul-24 00:33N 40°41' W 074°09'0 0.0
2015-Jul-23 23:33N 40°41' W 074°09'0 0.0
2015-Jul-23 22:33N 40°41' W 074°09'0 0.0
2015-Jul-23 21:27N 40°41' W 074°09'0 0.0
2015-Jul-23 20:27N 40°41' W 074°09'0 0.0
2015-Jul-23 19:33N 40°41' W 074°09'0 0.0
2015-Jul-23 18:33N 40°41' W 074°09'0 0.0
2015-Jul-23 17:33N 40°41' W 074°09'0 0.0
2015-Jul-23 16:30N 40°41' W 074°09'0 0.0
2015-Jul-23 15:33N 40°41' W 074°09'0 0.0
2015-Jul-23 14:33N 40°41' W 074°09'0 0.0
2015-Jul-23 13:33N 40°41' W 074°09'0 0.0
2015-Jul-23 12:33N 40°41' W 074°09'0 0.0
2015-Jul-23 11:30N 40°41' W 074°09'0 0.0
2015-Jul-23 10:30N 40°41' W 074°09'0 0.0
2015-Jul-23 09:33N 40°41' W 074°09'0 0.0
2015-Jul-23 08:33N 40°41' W 074°09'0 0.0
2015-Jul-23 07:33N 40°41' W 074°09'0 0.0
2015-Jul-23 06:33N 40°41' W 074°09'0 0.0
2015-Jul-23 05:30N 40°41' W 074°09'0 0.0
2015-Jul-23 04:33N 40°41' W 074°09'0 0.0
2015-Jul-23 03:33N 40°41' W 074°09'0 0.0
2015-Jul-23 02:33N 40°41' W 074°09'0 0.0
2015-Jul-23 01:33N 40°41' W 074°09'0 0.0
2015-Jul-23 00:33N 40°41' W 074°09'0 0.0
2015-Jul-22 23:33N 40°41' W 074°09'0 0.0
2015-Jul-22 22:33N 40°41' W 074°09'0 0.0
2015-Jul-22 21:33N 40°41' W 074°09'0 0.0
2015-Jul-22 20:33N 40°41' W 074°09'0 0.0
2015-Jul-22 19:33N 40°41' W 074°09'0 0.0
2015-Jul-22 18:27N 40°41' W 074°09'0 0.0
2015-Jul-22 17:27N 40°41' W 074°09'0 0.0
2015-Jul-22 16:33N 40°41' W 074°09'0 0.0
2015-Jul-22 15:33N 40°41' W 074°09'0 0.0
2015-Jul-22 14:30N 40°41' W 074°09'0 0.0
2015-Jul-22 13:33N 40°41' W 074°09'0 0.0
2015-Jul-22 12:33N 40°41' W 074°09'0 0.0
2015-Jul-22 11:33N 40°41' W 074°09'3 2.5
2015-Jul-22 10:33N 40°39' W 074°08'5 4.8
2015-Jul-22 09:33N 40°36' W 074°03'1311.1
2015-Jul-22 08:21N 40°27' W 073°50'5617.5
2015-Jul-22 05:09N 40°30' W 072°36'1421.0
2015-Jul-22 04:30N 40°31' W 072°18'2021.2
2015-Jul-22 03:33N 40°31' W 071°52'2121.4
2015-Jul-22 02:34N 40°32' W 071°24'2121.2
2015-Jul-22 01:33N 40°32' W 070°55'2121.3
2015-Jul-22 00:33N 40°33' W 070°28'2221.5
2015-Jul-21 23:33N 40°34' W 069°59'2221.4
2015-Jul-21 22:30N 40°35' W 069°30'2220.9
2015-Jul-21 21:27N 40°32' W 069°01'3920.7
2015-Jul-21 19:33N 40°26' W 068°10'2020.2
2015-Jul-21 18:33N 40°21' W 067°44'2019.7
2015-Jul-21 17:33N 40°16' W 067°19'2019.8
2015-Jul-21 16:33N 40°10' W 066°54'  

Dump ship's entire track history